sensor_id;sensor_type;location;lat;lon;timestamp;pressure;altitude;pressure_sealevel;temperature;humidity
69570;BME280;56781;42.292;23.146;2023-04-05T00:02:25;95042.28;;;0.31;95.71
69570;BME280;56781;42.292;23.146;2023-04-05T00:04:56;95039.16;;;0.34;95.87
69570;BME280;56781;42.292;23.146;2023-04-05T00:07:24;95030.97;;;0.30;96.04
69570;BME280;56781;42.292;23.146;2023-04-05T00:09:52;95060.63;;;0.48;95.75
69570;BME280;56781;42.292;23.146;2023-04-05T00:12:19;95062.06;;;0.33;96.31
69570;BME280;56781;42.292;23.146;2023-04-05T00:14:47;95059.44;;;0.33;95.24
69570;BME280;56781;42.292;23.146;2023-04-05T00:17:14;95041.94;;;0.22;95.44
69570;BME280;56781;42.292;23.146;2023-04-05T00:19:44;95051.41;;;0.23;94.99
69570;BME280;56781;42.292;23.146;2023-04-05T00:22:11;95042.41;;;0.19;95.56
69570;BME280;56781;42.292;23.146;2023-04-05T00:24:38;95044.00;;;0.20;95.82
69570;BME280;56781;42.292;23.146;2023-04-05T00:27:07;95046.66;;;0.20;95.09
69570;BME280;56781;42.292;23.146;2023-04-05T00:29:35;95043.28;;;0.25;94.84
69570;BME280;56781;42.292;23.146;2023-04-05T00:32:02;95064.28;;;0.19;95.55
69570;BME280;56781;42.292;23.146;2023-04-05T00:34:30;95074.00;;;0.19;95.79
69570;BME280;56781;42.292;23.146;2023-04-05T00:36:59;95053.63;;;0.09;95.31
69570;BME280;56781;42.292;23.146;2023-04-05T00:39:27;95061.81;;;0.13;95.27
69570;BME280;56781;42.292;23.146;2023-04-05T00:41:54;95093.16;;;0.36;95.29
69570;BME280;56781;42.292;23.146;2023-04-05T00:44:22;95080.78;;;0.15;96.04
69570;BME280;56781;42.292;23.146;2023-04-05T00:46:49;95070.56;;;0.18;95.27
69570;BME280;56781;42.292;23.146;2023-04-05T00:49:16;95060.25;;;0.12;95.54
69570;BME280;56781;42.292;23.146;2023-04-05T00:51:44;95064.16;;;0.09;95.59
69570;BME280;56781;42.292;23.146;2023-04-05T00:54:13;95067.34;;;0.11;95.30
69570;BME280;56781;42.292;23.146;2023-04-05T00:56:40;95074.19;;;0.12;96.26
69570;BME280;56781;42.292;23.146;2023-04-05T00:59:08;95076.69;;;0.02;96.01
69570;BME280;56781;42.292;23.146;2023-04-05T01:01:37;95087.53;;;0.06;96.49
69570;BME280;56781;42.292;23.146;2023-04-05T01:04:07;95076.94;;;0.01;97.34
69570;BME280;56781;42.292;23.146;2023-04-05T01:07:04;95110.41;;;0.27;98.03
69570;BME280;56781;42.292;23.146;2023-04-05T01:09:47;95089.13;;;0.07;98.06
69570;BME280;56781;42.292;23.146;2023-04-05T01:12:20;95088.13;;;0.13;97.79
69570;BME280;56781;42.292;23.146;2023-04-05T01:14:51;95088.63;;;0.10;96.95
69570;BME280;56781;42.292;23.146;2023-04-05T01:17:21;95102.94;;;0.19;96.77
69570;BME280;56781;42.292;23.146;2023-04-05T01:19:55;95091.19;;;0.05;95.91
69570;BME280;56781;42.292;23.146;2023-04-05T01:30:36;95111.94;;;0.01;96.56
69570;BME280;56781;42.292;23.146;2023-04-05T01:33:13;95108.25;;;0.02;96.76
69570;BME280;56781;42.292;23.146;2023-04-05T01:38:18;95131.53;;;0.10;96.02
69570;BME280;56781;42.292;23.146;2023-04-05T01:40:48;95130.16;;;0.08;96.63
69570;BME280;56781;42.292;23.146;2023-04-05T01:43:16;95123.25;;;0.02;95.84
69570;BME280;56781;42.292;23.146;2023-04-05T01:45:45;95109.03;;;0.03;95.81
69570;BME280;56781;42.292;23.146;2023-04-05T01:48:13;95118.91;;;0.12;96.54
69570;BME280;56781;42.292;23.146;2023-04-05T01:50:41;95129.09;;;0.26;96.54
69570;BME280;56781;42.292;23.146;2023-04-05T01:53:09;95115.72;;;0.32;95.29
69570;BME280;56781;42.292;23.146;2023-04-05T01:55:36;95106.63;;;0.18;95.56
69570;BME280;56781;42.292;23.146;2023-04-05T01:58:03;95112.06;;;0.11;95.23
69570;BME280;56781;42.292;23.146;2023-04-05T02:00:31;95116.00;;;0.09;95.42
69570;BME280;56781;42.292;23.146;2023-04-05T02:02:58;95113.78;;;0.01;95.65
69570;BME280;56781;42.292;23.146;2023-04-05T02:05:26;95102.63;;;-0.07;96.50
69570;BME280;56781;42.292;23.146;2023-04-05T02:07:53;95133.84;;;0.07;96.48
69570;BME280;56781;42.292;23.146;2023-04-05T02:10:24;95120.38;;;0.03;96.49
69570;BME280;56781;42.292;23.146;2023-04-05T02:12:51;95145.94;;;0.25;97.27
69570;BME280;56781;42.292;23.146;2023-04-05T02:15:18;95125.97;;;0.07;95.87
69570;BME280;56781;42.292;23.146;2023-04-05T02:17:45;95125.31;;;0.16;95.99
69570;BME280;56781;42.292;23.146;2023-04-05T02:20:13;95146.97;;;0.24;95.94
69570;BME280;56781;42.292;23.146;2023-04-05T02:22:40;95148.56;;;0.25;96.13
69570;BME280;56781;42.292;23.146;2023-04-05T02:25:11;95125.41;;;0.05;96.58
69570;BME280;56781;42.292;23.146;2023-04-05T02:27:39;95121.47;;;0.07;96.74
69570;BME280;56781;42.292;23.146;2023-04-05T02:30:07;95120.19;;;0.10;97.00
69570;BME280;56781;42.292;23.146;2023-04-05T02:32:34;95127.72;;;0.01;97.28
69570;BME280;56781;42.292;23.146;2023-04-05T02:35:02;95123.97;;;0.14;98.46
69570;BME280;56781;42.292;23.146;2023-04-05T02:37:30;95126.09;;;0.17;98.52
69570;BME280;56781;42.292;23.146;2023-04-05T02:39:57;95119.97;;;0.11;99.46
69570;BME280;56781;42.292;23.146;2023-04-05T02:42:24;95122.63;;;-0.06;100.00
69570;BME280;56781;42.292;23.146;2023-04-05T02:44:51;95122.56;;;-0.11;100.00
69570;BME280;56781;42.292;23.146;2023-04-05T02:47:19;95125.06;;;-0.21;100.00
69570;BME280;56781;42.292;23.146;2023-04-05T02:49:47;95140.50;;;-0.08;100.00
69570;BME280;56781;42.292;23.146;2023-04-05T02:52:15;95156.41;;;0.03;100.00
69570;BME280;56781;42.292;23.146;2023-04-05T02:54:42;95114.47;;;-0.26;100.00
69570;BME280;56781;42.292;23.146;2023-04-05T02:57:11;95127.75;;;-0.16;100.00
69570;BME280;56781;42.292;23.146;2023-04-05T02:59:39;95124.00;;;-0.20;100.00
69570;BME280;56781;42.292;23.146;2023-04-05T03:02:07;95133.56;;;0.03;100.00
69570;BME280;56781;42.292;23.146;2023-04-05T03:04:34;95138.19;;;0.18;100.00
69570;BME280;56781;42.292;23.146;2023-04-05T03:07:03;95128.88;;;0.10;100.00
69570;BME280;56781;42.292;23.146;2023-04-05T03:09:30;95136.47;;;0.07;100.00
69570;BME280;56781;42.292;23.146;2023-04-05T03:12:00;95172.56;;;0.50;100.00
69570;BME280;56781;42.292;23.146;2023-04-05T03:14:30;95144.03;;;0.20;100.00
69570;BME280;56781;42.292;23.146;2023-04-05T03:16:57;95137.03;;;0.09;100.00
69570;BME280;56781;42.292;23.146;2023-04-05T03:19:25;95139.47;;;0.15;100.00
69570;BME280;56781;42.292;23.146;2023-04-05T03:21:52;95139.84;;;0.24;100.00
69570;BME280;56781;42.292;23.146;2023-04-05T03:24:20;95150.09;;;0.42;100.00
69570;BME280;56781;42.292;23.146;2023-04-05T03:26:48;95135.16;;;0.26;100.00
69570;BME280;56781;42.292;23.146;2023-04-05T03:29:16;95145.53;;;0.16;100.00
69570;BME280;56781;42.292;23.146;2023-04-05T03:31:44;95142.41;;;0.19;100.00
69570;BME280;56781;42.292;23.146;2023-04-05T03:34:11;95151.28;;;0.13;100.00
69570;BME280;56781;42.292;23.146;2023-04-05T03:36:38;95171.84;;;0.33;100.00
69570;BME280;56781;42.292;23.146;2023-04-05T03:39:10;95159.47;;;0.33;100.00
69570;BME280;56781;42.292;23.146;2023-04-05T03:41:39;95174.22;;;0.34;100.00
69570;BME280;56781;42.292;23.146;2023-04-05T03:44:07;95138.41;;;0.11;100.00
69570;BME280;56781;42.292;23.146;2023-04-05T03:46:34;95158.22;;;0.19;100.00
69570;BME280;56781;42.292;23.146;2023-04-05T03:49:04;95156.69;;;0.23;100.00
69570;BME280;56781;42.292;23.146;2023-04-05T03:51:32;95154.63;;;0.25;100.00
69570;BME280;56781;42.292;23.146;2023-04-05T03:53:59;95155.06;;;0.39;100.00
69570;BME280;56781;42.292;23.146;2023-04-05T03:56:26;95157.13;;;0.37;100.00
69570;BME280;56781;42.292;23.146;2023-04-05T03:58:53;95156.63;;;0.40;100.00
69570;BME280;56781;42.292;23.146;2023-04-05T04:01:21;95157.56;;;0.29;100.00
69570;BME280;56781;42.292;23.146;2023-04-05T04:03:48;95171.16;;;0.42;100.00
69570;BME280;56781;42.292;23.146;2023-04-05T04:06:15;95165.41;;;0.46;100.00
69570;BME280;56781;42.292;23.146;2023-04-05T04:08:45;95165.03;;;0.37;100.00
69570;BME280;56781;42.292;23.146;2023-04-05T04:11:12;95159.88;;;0.25;100.00
69570;BME280;56781;42.292;23.146;2023-04-05T04:13:39;95172.94;;;0.37;100.00
69570;BME280;56781;42.292;23.146;2023-04-05T04:16:06;95171.16;;;0.42;100.00
69570;BME280;56781;42.292;23.146;2023-04-05T04:18:34;95188.88;;;0.47;100.00
69570;BME280;56781;42.292;23.146;2023-04-05T04:21:02;95170.16;;;0.49;100.00
69570;BME280;56781;42.292;23.146;2023-04-05T04:23:33;95159.34;;;0.45;100.00
69570;BME280;56781;42.292;23.146;2023-04-05T04:26:00;95173.56;;;0.44;100.00
69570;BME280;56781;42.292;23.146;2023-04-05T04:28:28;95163.03;;;0.44;99.83
69570;BME280;56781;42.292;23.146;2023-04-05T04:30:56;95195.84;;;0.58;100.00
69570;BME280;56781;42.292;23.146;2023-04-05T04:33:23;95169.38;;;0.48;99.28
69570;BME280;56781;42.292;23.146;2023-04-05T04:35:50;95177.28;;;0.48;100.00
69570;BME280;56781;42.292;23.146;2023-04-05T04:38:20;95169.72;;;0.52;100.00
69570;BME280;56781;42.292;23.146;2023-04-05T04:40:47;95173.28;;;0.46;100.00
69570;BME280;56781;42.292;23.146;2023-04-05T04:43:19;95189.28;;;0.61;100.00
69570;BME280;56781;42.292;23.146;2023-04-05T04:45:53;95168.41;;;0.54;100.00
69570;BME280;56781;42.292;23.146;2023-04-05T04:48:22;95209.56;;;0.82;99.92
69570;BME280;56781;42.292;23.146;2023-04-05T04:50:49;95183.53;;;0.64;99.47
69570;BME280;56781;42.292;23.146;2023-04-05T04:53:17;95181.31;;;0.78;98.22
69570;BME280;56781;42.292;23.146;2023-04-05T04:55:47;95181.63;;;0.81;98.44
69570;BME280;56781;42.292;23.146;2023-04-05T04:58:16;95195.91;;;0.85;98.75
69570;BME280;56781;42.292;23.146;2023-04-05T05:00:43;95191.19;;;0.87;97.95
69570;BME280;56781;42.292;23.146;2023-04-05T05:03:11;95180.47;;;0.72;98.14
69570;BME280;56781;42.292;23.146;2023-04-05T05:05:47;95214.31;;;1.07;97.86
69570;BME280;56781;42.292;23.146;2023-04-05T05:08:15;95190.88;;;1.06;97.02
69570;BME280;56781;42.292;23.146;2023-04-05T05:10:50;95202.78;;;1.14;97.02
69570;BME280;56781;42.292;23.146;2023-04-05T05:13:20;95202.59;;;1.20;97.89
69570;BME280;56781;42.292;23.146;2023-04-05T05:15:48;95203.22;;;1.32;97.93
69570;BME280;56781;42.292;23.146;2023-04-05T05:18:15;95196.03;;;1.50;97.43
69570;BME280;56781;42.292;23.146;2023-04-05T05:20:42;95208.63;;;1.43;96.91
69570;BME280;56781;42.292;23.146;2023-04-05T05:23:09;95196.22;;;1.16;96.19
69570;BME280;56781;42.292;23.146;2023-04-05T05:25:36;95205.34;;;1.58;96.44
69570;BME280;56781;42.292;23.146;2023-04-05T05:28:04;95203.72;;;1.57;95.81
69570;BME280;56781;42.292;23.146;2023-04-05T05:30:31;95205.47;;;1.46;96.80
69570;BME280;56781;42.292;23.146;2023-04-05T05:32:59;95202.09;;;1.50;97.34
69570;BME280;56781;42.292;23.146;2023-04-05T05:35:27;95195.66;;;1.36;96.13
69570;BME280;56781;42.292;23.146;2023-04-05T05:37:54;95219.16;;;1.43;96.23
69570;BME280;56781;42.292;23.146;2023-04-05T05:40:21;95203.09;;;1.44;96.08
69570;BME280;56781;42.292;23.146;2023-04-05T05:42:49;95213.44;;;1.24;96.04
69570;BME280;56781;42.292;23.146;2023-04-05T05:45:16;95209.75;;;1.52;96.89
69570;BME280;56781;42.292;23.146;2023-04-05T05:47:43;95205.44;;;1.73;94.62
69570;BME280;56781;42.292;23.146;2023-04-05T05:50:10;95239.06;;;1.83;94.39
69570;BME280;56781;42.292;23.146;2023-04-05T05:52:37;95212.81;;;1.71;94.07
69570;BME280;56781;42.292;23.146;2023-04-05T05:55:05;95206.75;;;1.70;91.88
69570;BME280;56781;42.292;23.146;2023-04-05T05:57:33;95209.94;;;1.72;90.27
69570;BME280;56781;42.292;23.146;2023-04-05T06:00:00;95203.94;;;1.82;91.33
69570;BME280;56781;42.292;23.146;2023-04-05T06:02:27;95232.34;;;2.02;89.13
69570;BME280;56781;42.292;23.146;2023-04-05T06:04:54;95232.47;;;2.22;91.90
69570;BME280;56781;42.292;23.146;2023-04-05T06:07:21;95203.56;;;2.06;90.65
69570;BME280;56781;42.292;23.146;2023-04-05T06:09:49;95219.38;;;2.00;92.15
69570;BME280;56781;42.292;23.146;2023-04-05T06:12:16;95229.59;;;2.24;90.08
69570;BME280;56781;42.292;23.146;2023-04-05T06:14:43;95213.50;;;2.26;90.44
69570;BME280;56781;42.292;23.146;2023-04-05T06:17:10;95205.03;;;2.24;87.22
69570;BME280;56781;42.292;23.146;2023-04-05T06:19:37;95210.28;;;2.18;86.39
69570;BME280;56781;42.292;23.146;2023-04-05T06:22:04;95219.06;;;2.29;88.05
69570;BME280;56781;42.292;23.146;2023-04-05T06:24:32;95221.66;;;1.87;89.61
69570;BME280;56781;42.292;23.146;2023-04-05T06:26:59;95220.16;;;1.96;90.75
69570;BME280;56781;42.292;23.146;2023-04-05T06:29:27;95245.44;;;1.92;88.99
69570;BME280;56781;42.292;23.146;2023-04-05T06:31:54;95229.25;;;1.51;88.42
69570;BME280;56781;42.292;23.146;2023-04-05T06:34:21;95250.34;;;1.78;87.35
69570;BME280;56781;42.292;23.146;2023-04-05T06:36:48;95228.69;;;2.08;86.64
69570;BME280;56781;42.292;23.146;2023-04-05T06:39:16;95233.53;;;2.21;86.27
69570;BME280;56781;42.292;23.146;2023-04-05T06:41:43;95228.91;;;2.02;86.43
69570;BME280;56781;42.292;23.146;2023-04-05T06:44:10;95232.16;;;1.82;85.69
69570;BME280;56781;42.292;23.146;2023-04-05T06:46:37;95244.09;;;2.21;87.82
69570;BME280;56781;42.292;23.146;2023-04-05T06:49:05;95238.69;;;2.01;85.11
69570;BME280;56781;42.292;23.146;2023-04-05T06:51:32;95230.06;;;2.16;86.00
69570;BME280;56781;42.292;23.146;2023-04-05T06:53:59;95232.03;;;2.36;86.18
69570;BME280;56781;42.292;23.146;2023-04-05T06:56:26;95248.50;;;2.48;84.37
69570;BME280;56781;42.292;23.146;2023-04-05T06:58:54;95259.16;;;2.63;84.84
69570;BME280;56781;42.292;23.146;2023-04-05T07:01:21;95234.81;;;2.19;82.99
69570;BME280;56781;42.292;23.146;2023-04-05T07:03:51;95254.88;;;2.15;83.40
69570;BME280;56781;42.292;23.146;2023-04-05T07:06:19;95262.81;;;1.83;84.32
69570;BME280;56781;42.292;23.146;2023-04-05T07:08:46;95267.25;;;2.09;82.95
69570;BME280;56781;42.292;23.146;2023-04-05T07:11:13;95287.88;;;2.12;82.29
69570;BME280;56781;42.292;23.146;2023-04-05T07:13:41;95263.78;;;2.09;83.31
69570;BME280;56781;42.292;23.146;2023-04-05T07:16:08;95264.09;;;2.12;81.14
69570;BME280;56781;42.292;23.146;2023-04-05T07:18:35;95264.47;;;2.26;81.67
69570;BME280;56781;42.292;23.146;2023-04-05T07:21:02;95291.38;;;1.91;82.71
69570;BME280;56781;42.292;23.146;2023-04-05T07:23:30;95256.19;;;2.12;81.19
69570;BME280;56781;42.292;23.146;2023-04-05T07:26:01;95266.09;;;2.00;82.87
69570;BME280;56781;42.292;23.146;2023-04-05T07:28:31;95273.22;;;2.32;81.35
69570;BME280;56781;42.292;23.146;2023-04-05T07:31:00;95274.56;;;2.82;82.90
69570;BME280;56781;42.292;23.146;2023-04-05T07:33:27;95295.81;;;2.97;81.31
69570;BME280;56781;42.292;23.146;2023-04-05T07:35:54;95284.25;;;2.61;79.76
69570;BME280;56781;42.292;23.146;2023-04-05T07:38:23;95279.72;;;2.56;80.87
69570;BME280;56781;42.292;23.146;2023-04-05T07:40:50;95281.66;;;2.71;80.85
69570;BME280;56781;42.292;23.146;2023-04-05T07:43:18;95279.25;;;2.64;81.14
69570;BME280;56781;42.292;23.146;2023-04-05T07:45:45;95285.97;;;2.87;81.80
69570;BME280;56781;42.292;23.146;2023-04-05T07:48:12;95300.09;;;3.08;80.69
69570;BME280;56781;42.292;23.146;2023-04-05T07:50:40;95310.13;;;3.11;81.38
69570;BME280;56781;42.292;23.146;2023-04-05T07:53:08;95296.47;;;2.72;79.91
69570;BME280;56781;42.292;23.146;2023-04-05T07:55:38;95292.50;;;3.27;81.11
69570;BME280;56781;42.292;23.146;2023-04-05T07:58:05;95295.03;;;3.80;78.01
69570;BME280;56781;42.292;23.146;2023-04-05T08:00:33;95297.16;;;3.83;76.34
69570;BME280;56781;42.292;23.146;2023-04-05T08:03:00;95294.53;;;3.88;77.93
69570;BME280;56781;42.292;23.146;2023-04-05T08:05:28;95301.84;;;3.50;76.13
69570;BME280;56781;42.292;23.146;2023-04-05T08:07:55;95300.84;;;3.67;74.84
69570;BME280;56781;42.292;23.146;2023-04-05T08:10:24;95293.91;;;3.50;80.07
69570;BME280;56781;42.292;23.146;2023-04-05T08:12:52;95308.13;;;3.34;80.13
69570;BME280;56781;42.292;23.146;2023-04-05T08:15:19;95309.19;;;3.33;77.63
69570;BME280;56781;42.292;23.146;2023-04-05T08:17:46;95298.38;;;3.45;81.18
69570;BME280;56781;42.292;23.146;2023-04-05T08:20:14;95297.97;;;3.10;80.93
69570;BME280;56781;42.292;23.146;2023-04-05T08:22:41;95304.47;;;2.87;79.98
69570;BME280;56781;42.292;23.146;2023-04-05T08:25:08;95332.53;;;3.51;80.07
69570;BME280;56781;42.292;23.146;2023-04-05T08:27:36;95331.06;;;3.96;81.04
69570;BME280;56781;42.292;23.146;2023-04-05T08:30:03;95304.31;;;3.93;78.06
69570;BME280;56781;42.292;23.146;2023-04-05T08:32:32;95309.34;;;4.10;76.77
69570;BME280;56781;42.292;23.146;2023-04-05T08:34:59;95307.22;;;4.07;77.22
69570;BME280;56781;42.292;23.146;2023-04-05T08:37:26;95318.41;;;4.29;75.95
69570;BME280;56781;42.292;23.146;2023-04-05T08:39:54;95303.78;;;4.37;76.19
69570;BME280;56781;42.292;23.146;2023-04-05T08:42:35;95308.00;;;4.74;73.14
69570;BME280;56781;42.292;23.146;2023-04-05T08:45:04;95299.97;;;5.04;71.43
69570;BME280;56781;42.292;23.146;2023-04-05T08:47:36;95336.41;;;5.59;69.76
69570;BME280;56781;42.292;23.146;2023-04-05T08:50:05;95305.69;;;5.37;71.28
69570;BME280;56781;42.292;23.146;2023-04-05T08:52:32;95317.84;;;4.48;76.66
69570;BME280;56781;42.292;23.146;2023-04-05T08:55:04;95311.19;;;3.84;77.55
69570;BME280;56781;42.292;23.146;2023-04-05T08:57:33;95312.00;;;3.94;75.04
69570;BME280;56781;42.292;23.146;2023-04-05T09:00:03;95313.88;;;4.25;77.81
69570;BME280;56781;42.292;23.146;2023-04-05T09:02:31;95300.88;;;4.33;76.34
69570;BME280;56781;42.292;23.146;2023-04-05T09:05:01;95310.91;;;3.80;74.95
69570;BME280;56781;42.292;23.146;2023-04-05T09:07:29;95308.56;;;4.50;79.00
69570;BME280;56781;42.292;23.146;2023-04-05T09:09:58;95306.91;;;4.95;75.19
69570;BME280;56781;42.292;23.146;2023-04-05T09:12:27;95322.63;;;4.46;74.37
69570;BME280;56781;42.292;23.146;2023-04-05T09:14:54;95307.53;;;4.56;72.60
69570;BME280;56781;42.292;23.146;2023-04-05T09:17:22;95306.16;;;4.79;72.52
69570;BME280;56781;42.292;23.146;2023-04-05T09:19:49;95310.13;;;4.72;75.50
69570;BME280;56781;42.292;23.146;2023-04-05T09:22:16;95316.41;;;5.22;71.75
69570;BME280;56781;42.292;23.146;2023-04-05T09:24:46;95309.34;;;4.61;74.66
69570;BME280;56781;42.292;23.146;2023-04-05T09:27:15;95299.81;;;4.60;75.16
69570;BME280;56781;42.292;23.146;2023-04-05T09:29:46;95305.50;;;5.18;71.65
69570;BME280;56781;42.292;23.146;2023-04-05T09:32:15;95322.81;;;5.00;73.80
69570;BME280;56781;42.292;23.146;2023-04-05T09:34:43;95300.38;;;5.42;72.55
69570;BME280;56781;42.292;23.146;2023-04-05T09:37:19;95297.28;;;5.80;68.23
69570;BME280;56781;42.292;23.146;2023-04-05T09:39:48;95279.34;;;5.51;69.04
69570;BME280;56781;42.292;23.146;2023-04-05T09:42:19;95305.44;;;5.44;71.40
69570;BME280;56781;42.292;23.146;2023-04-05T09:47:30;95314.50;;;6.32;68.76
69570;BME280;56781;42.292;23.146;2023-04-05T09:50:01;95288.97;;;5.96;66.54
69570;BME280;56781;42.292;23.146;2023-04-05T09:52:32;95312.59;;;5.93;68.54
69570;BME280;56781;42.292;23.146;2023-04-05T09:55:03;95275.97;;;5.90;68.37
69570;BME280;56781;42.292;23.146;2023-04-05T09:57:36;95283.16;;;6.29;68.40
69570;BME280;56781;42.292;23.146;2023-04-05T10:00:05;95287.91;;;6.32;67.27
69570;BME280;56781;42.292;23.146;2023-04-05T10:02:37;95279.00;;;6.76;63.67
69570;BME280;56781;42.292;23.146;2023-04-05T10:05:06;95265.13;;;7.70;64.08
69570;BME280;56781;42.292;23.146;2023-04-05T10:07:33;95291.19;;;6.82;67.22
69570;BME280;56781;42.292;23.146;2023-04-05T10:10:02;95271.72;;;6.62;66.08
69570;BME280;56781;42.292;23.146;2023-04-05T10:12:31;95274.25;;;6.73;65.96
69570;BME280;56781;42.292;23.146;2023-04-05T10:14:59;95285.13;;;6.47;68.18
69570;BME280;56781;42.292;23.146;2023-04-05T10:20:17;95282.19;;;6.14;63.33
69570;BME280;56781;42.292;23.146;2023-04-05T10:28:34;95296.88;;;4.77;72.88
69570;BME280;56781;42.292;23.146;2023-04-05T10:33:46;95311.09;;;5.17;72.34
69570;BME280;56781;42.292;23.146;2023-04-05T10:39:12;95282.56;;;4.78;72.14
69570;BME280;56781;42.292;23.146;2023-04-05T10:41:52;95293.41;;;4.92;73.65
69570;BME280;56781;42.292;23.146;2023-04-05T10:44:20;95280.88;;;5.07;72.51
69570;BME280;56781;42.292;23.146;2023-04-05T10:46:53;95276.91;;;5.05;69.73
69570;BME280;56781;42.292;23.146;2023-04-05T10:49:42;95276.78;;;5.41;69.04
69570;BME280;56781;42.292;23.146;2023-04-05T10:52:12;95276.38;;;5.08;72.59
69570;BME280;56781;42.292;23.146;2023-04-05T10:54:40;95273.25;;;4.85;70.96
69570;BME280;56781;42.292;23.146;2023-04-05T10:57:08;95274.63;;;4.68;69.67
69570;BME280;56781;42.292;23.146;2023-04-05T10:59:44;95282.84;;;4.61;72.70
69570;BME280;56781;42.292;23.146;2023-04-05T11:02:13;95271.69;;;4.64;71.42
69570;BME280;56781;42.292;23.146;2023-04-05T11:04:41;95296.09;;;4.71;71.41
69570;BME280;56781;42.292;23.146;2023-04-05T11:07:16;95282.88;;;4.51;69.95
69570;BME280;56781;42.292;23.146;2023-04-05T11:10:05;95298.38;;;5.19;70.07
69570;BME280;56781;42.292;23.146;2023-04-05T11:18:06;95288.41;;;5.50;69.42
69570;BME280;56781;42.292;23.146;2023-04-05T11:20:44;95293.53;;;5.81;67.89
69570;BME280;56781;42.292;23.146;2023-04-05T11:23:16;95290.41;;;5.73;68.32
69570;BME280;56781;42.292;23.146;2023-04-05T11:25:53;95284.03;;;5.69;67.13
69570;BME280;56781;42.292;23.146;2023-04-05T11:28:33;95299.22;;;5.64;69.44
69570;BME280;56781;42.292;23.146;2023-04-05T11:31:16;95278.13;;;5.33;65.88
69570;BME280;56781;42.292;23.146;2023-04-05T11:42:05;95283.19;;;5.29;69.44
69570;BME280;56781;42.292;23.146;2023-04-05T11:44:45;95289.91;;;5.66;71.63
69570;BME280;56781;42.292;23.146;2023-04-05T11:47:18;95282.44;;;5.19;70.23
69570;BME280;56781;42.292;23.146;2023-04-05T11:49:50;95285.56;;;5.31;69.72
69570;BME280;56781;42.292;23.146;2023-04-05T11:52:20;95285.88;;;5.24;68.99
69570;BME280;56781;42.292;23.146;2023-04-05T11:54:47;95293.75;;;5.40;68.51
69570;BME280;56781;42.292;23.146;2023-04-05T11:57:20;95277.41;;;5.12;69.90
69570;BME280;56781;42.292;23.146;2023-04-05T11:59:50;95275.50;;;5.28;66.98
69570;BME280;56781;42.292;23.146;2023-04-05T12:02:18;95272.06;;;5.22;67.71
69570;BME280;56781;42.292;23.146;2023-04-05T12:04:56;95308.66;;;5.36;66.42
69570;BME280;56781;42.292;23.146;2023-04-05T12:07:27;95312.28;;;5.55;67.50
69570;BME280;56781;42.292;23.146;2023-04-05T12:10:00;95278.66;;;5.85;67.83
69570;BME280;56781;42.292;23.146;2023-04-05T12:12:39;95284.47;;;5.92;65.49
69570;BME280;56781;42.292;23.146;2023-04-05T12:15:08;95283.31;;;5.59;65.77
69570;BME280;56781;42.292;23.146;2023-04-05T12:17:49;95295.94;;;5.82;64.78
69570;BME280;56781;42.292;23.146;2023-04-05T12:20:19;95298.84;;;6.59;64.80
69570;BME280;56781;42.292;23.146;2023-04-05T12:22:47;95284.75;;;5.36;65.45
69570;BME280;56781;42.292;23.146;2023-04-05T12:25:16;95283.94;;;5.40;67.50
69570;BME280;56781;42.292;23.146;2023-04-05T12:27:43;95278.84;;;5.54;63.90
69570;BME280;56781;42.292;23.146;2023-04-05T12:30:16;95280.84;;;5.72;61.63
69570;BME280;56781;42.292;23.146;2023-04-05T12:32:49;95279.19;;;5.87;61.82
69570;BME280;56781;42.292;23.146;2023-04-05T12:35:23;95273.97;;;6.74;62.24
69570;BME280;56781;42.292;23.146;2023-04-05T12:37:50;95303.84;;;6.66;63.20
69570;BME280;56781;42.292;23.146;2023-04-05T12:40:22;95289.16;;;6.05;62.58
69570;BME280;56781;42.292;23.146;2023-04-05T12:42:50;95288.38;;;5.55;65.86
69570;BME280;56781;42.292;23.146;2023-04-05T12:45:17;95282.34;;;5.94;65.80
69570;BME280;56781;42.292;23.146;2023-04-05T12:47:58;95275.22;;;6.24;67.37
69570;BME280;56781;42.292;23.146;2023-04-05T12:50:27;95281.72;;;6.07;66.56
69570;BME280;56781;42.292;23.146;2023-04-05T12:52:57;95277.53;;;5.91;66.31
69570;BME280;56781;42.292;23.146;2023-04-05T12:55:26;95270.94;;;5.39;66.66
69570;BME280;56781;42.292;23.146;2023-04-05T12:57:57;95280.84;;;5.13;66.32
69570;BME280;56781;42.292;23.146;2023-04-05T13:00:27;95277.94;;;5.19;69.52
69570;BME280;56781;42.292;23.146;2023-04-05T13:02:57;95300.59;;;5.51;66.25
69570;BME280;56781;42.292;23.146;2023-04-05T13:05:28;95281.28;;;5.40;67.06
69570;BME280;56781;42.292;23.146;2023-04-05T13:07:57;95308.50;;;5.66;68.89
69570;BME280;56781;42.292;23.146;2023-04-05T13:10:24;95302.41;;;5.66;67.62
69570;BME280;56781;42.292;23.146;2023-04-05T13:12:52;95281.88;;;5.27;66.78
69570;BME280;56781;42.292;23.146;2023-04-05T13:15:19;95283.25;;;5.09;67.18
69570;BME280;56781;42.292;23.146;2023-04-05T13:17:47;95272.63;;;5.14;67.58
69570;BME280;56781;42.292;23.146;2023-04-05T13:20:16;95297.19;;;5.45;68.37
69570;BME280;56781;42.292;23.146;2023-04-05T13:22:44;95277.50;;;5.57;69.63
69570;BME280;56781;42.292;23.146;2023-04-05T13:25:13;95248.25;;;5.07;67.14
69570;BME280;56781;42.292;23.146;2023-04-05T13:27:40;95277.81;;;5.40;68.31
69570;BME280;56781;42.292;23.146;2023-04-05T13:30:08;95272.91;;;5.07;68.19
69570;BME280;56781;42.292;23.146;2023-04-05T13:32:35;95299.16;;;5.19;68.20
69570;BME280;56781;42.292;23.146;2023-04-05T13:35:02;95270.53;;;5.06;70.12
69570;BME280;56781;42.292;23.146;2023-04-05T13:37:31;95271.66;;;4.84;68.42
69570;BME280;56781;42.292;23.146;2023-04-05T13:39:58;95269.03;;;4.79;69.70
69570;BME280;56781;42.292;23.146;2023-04-05T13:42:26;95278.13;;;4.42;68.27
69570;BME280;56781;42.292;23.146;2023-04-05T13:44:53;95261.13;;;4.54;71.55
69570;BME280;56781;42.292;23.146;2023-04-05T13:47:20;95286.03;;;4.68;70.21
69570;BME280;56781;42.292;23.146;2023-04-05T13:49:47;95279.69;;;4.59;72.32